sensor_id;sensor_type;location;lat;lon;timestamp;P1;durP1;ratioP1;P2;durP2;ratioP2
4700;SDS011;8724;51.272;6.554;2024-03-02T00:01:19;1.53;;;1.43;;
4700;SDS011;8724;51.272;6.554;2024-03-02T00:03:47;1.40;;;1.30;;
4700;SDS011;8724;51.272;6.554;2024-03-02T00:06:16;2.33;;;1.20;;
4700;SDS011;8724;51.272;6.554;2024-03-02T00:08:48;6.07;;;1.90;;
4700;SDS011;8724;51.272;6.554;2024-03-02T00:11:17;1.30;;;1.20;;
4700;SDS011;8724;51.272;6.554;2024-03-02T00:13:47;1.20;;;1.10;;
4700;SDS011;8724;51.272;6.554;2024-03-02T00:16:16;1.97;;;1.43;;
4700;SDS011;8724;51.272;6.554;2024-03-02T00:18:45;3.10;;;1.37;;
4700;SDS011;8724;51.272;6.554;2024-03-02T00:21:13;1.33;;;1.23;;
4700;SDS011;8724;51.272;6.554;2024-03-02T00:23:45;1.10;;;1.00;;
4700;SDS011;8724;51.272;6.554;2024-03-02T00:26:13;1.33;;;1.23;;
4700;SDS011;8724;51.272;6.554;2024-03-02T00:28:42;2.47;;;1.30;;
4700;SDS011;8724;51.272;6.554;2024-03-02T00:31:15;1.40;;;1.30;;
4700;SDS011;8724;51.272;6.554;2024-03-02T00:33:46;1.20;;;1.10;;
4700;SDS011;8724;51.272;6.554;2024-03-02T00:36:15;1.33;;;1.23;;
4700;SDS011;8724;51.272;6.554;2024-03-02T00:38:49;4.40;;;1.80;;
4700;SDS011;8724;51.272;6.554;2024-03-02T00:41:21;1.30;;;1.20;;
4700;SDS011;8724;51.272;6.554;2024-03-02T00:43:57;1.47;;;1.23;;
4700;SDS011;8724;51.272;6.554;2024-03-02T00:46:29;1.37;;;1.13;;
4700;SDS011;8724;51.272;6.554;2024-03-02T00:49:02;1.10;;;1.10;;
4700;SDS011;8724;51.272;6.554;2024-03-02T00:51:31;1.83;;;1.50;;
4700;SDS011;8724;51.272;6.554;2024-03-02T00:54:02;1.80;;;1.37;;
4700;SDS011;8724;51.272;6.554;2024-03-02T00:56:32;1.30;;;1.20;;
4700;SDS011;8724;51.272;6.554;2024-03-02T00:59:01;1.40;;;1.30;;
4700;SDS011;8724;51.272;6.554;2024-03-02T01:01:31;1.20;;;1.10;;
4700;SDS011;8724;51.272;6.554;2024-03-02T01:04:00;1.70;;;1.23;;
4700;SDS011;8724;51.272;6.554;2024-03-02T01:06:28;1.33;;;1.23;;
4700;SDS011;8724;51.272;6.554;2024-03-02T01:08:56;1.70;;;1.40;;
4700;SDS011;8724;51.272;6.554;2024-03-02T01:11:25;1.40;;;1.30;;
4700;SDS011;8724;51.272;6.554;2024-03-02T01:13:53;1.37;;;1.10;;
4700;SDS011;8724;51.272;6.554;2024-03-02T01:16:22;1.20;;;1.10;;
4700;SDS011;8724;51.272;6.554;2024-03-02T01:18:51;1.43;;;1.10;;
4700;SDS011;8724;51.272;6.554;2024-03-02T01:21:20;1.50;;;1.40;;
4700;SDS011;8724;51.272;6.554;2024-03-02T01:23:49;4.87;;;1.40;;
4700;SDS011;8724;51.272;6.554;2024-03-02T01:26:17;2.70;;;1.17;;
4700;SDS011;8724;51.272;6.554;2024-03-02T01:28:45;1.30;;;1.20;;
4700;SDS011;8724;51.272;6.554;2024-03-02T01:31:13;1.90;;;1.80;;
4700;SDS011;8724;51.272;6.554;2024-03-02T01:33:42;3.03;;;1.10;;
4700;SDS011;8724;51.272;6.554;2024-03-02T01:36:12;2.77;;;1.43;;
4700;SDS011;8724;51.272;6.554;2024-03-02T01:38:41;1.20;;;1.10;;
4700;SDS011;8724;51.272;6.554;2024-03-02T01:41:09;1.13;;;1.13;;
4700;SDS011;8724;51.272;6.554;2024-03-02T01:43:38;2.30;;;1.47;;
4700;SDS011;8724;51.272;6.554;2024-03-02T01:46:07;1.47;;;1.37;;
4700;SDS011;8724;51.272;6.554;2024-03-02T01:48:36;1.70;;;1.40;;
4700;SDS011;8724;51.272;6.554;2024-03-02T01:51:05;1.50;;;1.37;;
4700;SDS011;8724;51.272;6.554;2024-03-02T01:53:36;1.47;;;1.37;;
4700;SDS011;8724;51.272;6.554;2024-03-02T01:56:05;1.63;;;1.43;;
4700;SDS011;8724;51.272;6.554;2024-03-02T01:58:33;1.30;;;1.20;;
4700;SDS011;8724;51.272;6.554;2024-03-02T02:01:03;1.40;;;1.30;;
4700;SDS011;8724;51.272;6.554;2024-03-02T02:03:31;1.40;;;1.30;;
4700;SDS011;8724;51.272;6.554;2024-03-02T02:06:00;1.67;;;1.57;;
4700;SDS011;8724;51.272;6.554;2024-03-02T02:08:29;1.30;;;1.20;;
4700;SDS011;8724;51.272;6.554;2024-03-02T02:10:58;1.77;;;1.50;;
4700;SDS011;8724;51.272;6.554;2024-03-02T02:13:27;2.57;;;1.60;;
4700;SDS011;8724;51.272;6.554;2024-03-02T02:15:55;4.17;;;1.50;;
4700;SDS011;8724;51.272;6.554;2024-03-02T02:18:32;1.33;;;1.13;;
4700;SDS011;8724;51.272;6.554;2024-03-02T02:21:00;2.23;;;1.30;;
4700;SDS011;8724;51.272;6.554;2024-03-02T02:23:30;1.53;;;1.40;;
4700;SDS011;8724;51.272;6.554;2024-03-02T02:25:59;1.53;;;1.23;;
4700;SDS011;8724;51.272;6.554;2024-03-02T02:28:29;1.53;;;1.43;;
4700;SDS011;8724;51.272;6.554;2024-03-02T02:30:58;1.60;;;1.43;;
4700;SDS011;8724;51.272;6.554;2024-03-02T02:33:27;7.33;;;1.70;;
4700;SDS011;8724;51.272;6.554;2024-03-02T02:35:55;1.83;;;1.60;;
4700;SDS011;8724;51.272;6.554;2024-03-02T02:38:23;1.33;;;1.23;;
4700;SDS011;8724;51.272;6.554;2024-03-02T02:40:53;1.23;;;1.13;;
4700;SDS011;8724;51.272;6.554;2024-03-02T02:43:21;1.30;;;1.27;;
4700;SDS011;8724;51.272;6.554;2024-03-02T02:45:49;1.30;;;1.20;;
4700;SDS011;8724;51.272;6.554;2024-03-02T02:48:18;1.10;;;1.00;;
4700;SDS011;8724;51.272;6.554;2024-03-02T02:50:46;2.13;;;1.97;;
4700;SDS011;8724;51.272;6.554;2024-03-02T02:53:15;1.80;;;1.57;;
4700;SDS011;8724;51.272;6.554;2024-03-02T02:55:43;1.40;;;1.30;;
4700;SDS011;8724;51.272;6.554;2024-03-02T02:58:13;3.10;;;1.40;;
4700;SDS011;8724;51.272;6.554;2024-03-02T03:00:41;2.83;;;1.90;;
4700;SDS011;8724;51.272;6.554;2024-03-02T03:03:10;0.90;;;0.90;;
4700;SDS011;8724;51.272;6.554;2024-03-02T03:05:38;1.30;;;1.13;;
4700;SDS011;8724;51.272;6.554;2024-03-02T03:08:06;1.63;;;1.40;;
4700;SDS011;8724;51.272;6.554;2024-03-02T03:10:35;2.23;;;1.50;;
4700;SDS011;8724;51.272;6.554;2024-03-02T03:13:03;3.93;;;1.90;;
4700;SDS011;8724;51.272;6.554;2024-03-02T03:15:36;1.63;;;0.90;;
4700;SDS011;8724;51.272;6.554;2024-03-02T03:18:05;1.73;;;0.80;;
4700;SDS011;8724;51.272;6.554;2024-03-02T03:20:34;1.00;;;0.80;;
4700;SDS011;8724;51.272;6.554;2024-03-02T03:23:02;0.80;;;0.70;;
4700;SDS011;8724;51.272;6.554;2024-03-02T03:25:31;0.80;;;0.80;;
4700;SDS011;8724;51.272;6.554;2024-03-02T03:27:59;2.13;;;0.70;;
4700;SDS011;8724;51.272;6.554;2024-03-02T03:30:30;2.07;;;0.70;;
4700;SDS011;8724;51.272;6.554;2024-03-02T03:33:00;0.60;;;0.60;;
4700;SDS011;8724;51.272;6.554;2024-03-02T03:35:28;0.90;;;0.70;;
4700;SDS011;8724;51.272;6.554;2024-03-02T03:37:56;1.07;;;0.67;;
4700;SDS011;8724;51.272;6.554;2024-03-02T03:40:25;0.60;;;0.60;;
4700;SDS011;8724;51.272;6.554;2024-03-02T03:42:53;1.27;;;0.60;;
4700;SDS011;8724;51.272;6.554;2024-03-02T03:45:23;0.60;;;0.60;;
4700;SDS011;8724;51.272;6.554;2024-03-02T03:47:53;0.70;;;0.70;;
4700;SDS011;8724;51.272;6.554;2024-03-02T03:50:23;0.70;;;0.70;;
4700;SDS011;8724;51.272;6.554;2024-03-02T03:52:51;0.60;;;0.60;;
4700;SDS011;8724;51.272;6.554;2024-03-02T03:55:20;0.60;;;0.60;;
4700;SDS011;8724;51.272;6.554;2024-03-02T03:57:48;0.50;;;0.50;;
4700;SDS011;8724;51.272;6.554;2024-03-02T04:00:17;0.57;;;0.57;;
4700;SDS011;8724;51.272;6.554;2024-03-02T04:02:45;0.60;;;0.60;;
4700;SDS011;8724;51.272;6.554;2024-03-02T04:05:14;0.60;;;0.60;;
4700;SDS011;8724;51.272;6.554;2024-03-02T04:07:44;0.57;;;0.57;;
4700;SDS011;8724;51.272;6.554;2024-03-02T04:10:12;0.50;;;0.50;;
4700;SDS011;8724;51.272;6.554;2024-03-02T04:12:42;1.47;;;0.90;;
4700;SDS011;8724;51.272;6.554;2024-03-02T04:15:11;0.70;;;0.70;;
4700;SDS011;8724;51.272;6.554;2024-03-02T04:17:39;0.60;;;0.60;;
4700;SDS011;8724;51.272;6.554;2024-03-02T04:20:08;1.17;;;0.83;;
4700;SDS011;8724;51.272;6.554;2024-03-02T04:22:39;0.87;;;0.63;;
4700;SDS011;8724;51.272;6.554;2024-03-02T04:25:09;0.60;;;0.60;;
4700;SDS011;8724;51.272;6.554;2024-03-02T04:27:37;0.70;;;0.70;;
4700;SDS011;8724;51.272;6.554;2024-03-02T04:30:06;1.53;;;0.67;;
4700;SDS011;8724;51.272;6.554;2024-03-02T04:32:34;0.70;;;0.70;;
4700;SDS011;8724;51.272;6.554;2024-03-02T04:35:03;0.70;;;0.67;;
4700;SDS011;8724;51.272;6.554;2024-03-02T04:37:34;0.60;;;0.60;;
4700;SDS011;8724;51.272;6.554;2024-03-02T04:40:03;0.97;;;0.63;;
4700;SDS011;8724;51.272;6.554;2024-03-02T04:42:35;1.30;;;0.87;;
4700;SDS011;8724;51.272;6.554;2024-03-02T04:45:04;0.80;;;0.80;;
4700;SDS011;8724;51.272;6.554;2024-03-02T04:47:33;0.63;;;0.63;;
4700;SDS011;8724;51.272;6.554;2024-03-02T04:50:02;1.47;;;0.97;;
4700;SDS011;8724;51.272;6.554;2024-03-02T04:52:31;1.00;;;0.70;;
4700;SDS011;8724;51.272;6.554;2024-03-02T04:54:59;0.70;;;0.60;;
4700;SDS011;8724;51.272;6.554;2024-03-02T04:58:03;1.10;;;0.83;;
4700;SDS011;8724;51.272;6.554;2024-03-02T05:00:31;0.90;;;0.90;;
4700;SDS011;8724;51.272;6.554;2024-03-02T05:03:00;0.80;;;0.70;;
4700;SDS011;8724;51.272;6.554;2024-03-02T05:05:29;1.27;;;1.17;;
4700;SDS011;8724;51.272;6.554;2024-03-02T05:07:57;1.47;;;0.93;;
4700;SDS011;8724;51.272;6.554;2024-03-02T05:10:26;0.83;;;0.83;;
4700;SDS011;8724;51.272;6.554;2024-03-02T05:12:54;1.37;;;1.00;;
4700;SDS011;8724;51.272;6.554;2024-03-02T05:15:28;0.70;;;0.70;;
4700;SDS011;8724;51.272;6.554;2024-03-02T05:17:57;1.13;;;0.80;;
4700;SDS011;8724;51.272;6.554;2024-03-02T05:20:26;2.23;;;0.80;;
4700;SDS011;8724;51.272;6.554;2024-03-02T05:22:55;0.80;;;0.80;;
4700;SDS011;8724;51.272;6.554;2024-03-02T05:25:23;1.53;;;0.73;;
4700;SDS011;8724;51.272;6.554;2024-03-02T05:27:52;2.90;;;0.80;;
4700;SDS011;8724;51.272;6.554;2024-03-02T05:30:20;0.60;;;0.60;;
4700;SDS011;8724;51.272;6.554;2024-03-02T05:32:50;1.63;;;0.73;;
4700;SDS011;8724;51.272;6.554;2024-03-02T05:35:19;3.50;;;0.80;;
4700;SDS011;8724;51.272;6.554;2024-03-02T05:37:48;1.00;;;1.00;;
4700;SDS011;8724;51.272;6.554;2024-03-02T05:40:16;2.10;;;0.80;;
4700;SDS011;8724;51.272;6.554;2024-03-02T05:42:47;0.93;;;0.90;;
4700;SDS011;8724;51.272;6.554;2024-03-02T05:45:16;1.20;;;0.93;;
4700;SDS011;8724;51.272;6.554;2024-03-02T05:47:44;2.30;;;0.80;;
4700;SDS011;8724;51.272;6.554;2024-03-02T05:50:14;0.70;;;0.70;;
4700;SDS011;8724;51.272;6.554;2024-03-02T05:52:43;1.27;;;0.80;;
4700;SDS011;8724;51.272;6.554;2024-03-02T05:55:11;1.00;;;0.80;;
4700;SDS011;8724;51.272;6.554;2024-03-02T05:57:40;1.80;;;1.00;;
4700;SDS011;8724;51.272;6.554;2024-03-02T06:00:22;1.70;;;1.00;;
4700;SDS011;8724;51.272;6.554;2024-03-02T06:02:50;1.53;;;1.00;;
4700;SDS011;8724;51.272;6.554;2024-03-02T06:05:21;1.63;;;1.53;;
4700;SDS011;8724;51.272;6.554;2024-03-02T06:07:49;1.20;;;1.10;;
4700;SDS011;8724;51.272;6.554;2024-03-02T06:10:17;2.13;;;1.70;;
4700;SDS011;8724;51.272;6.554;2024-03-02T06:12:46;1.60;;;1.17;;
4700;SDS011;8724;51.272;6.554;2024-03-02T06:15:14;2.10;;;1.77;;
4700;SDS011;8724;51.272;6.554;2024-03-02T06:17:43;2.20;;;1.60;;
4700;SDS011;8724;51.272;6.554;2024-03-02T06:20:11;2.07;;;1.87;;
4700;SDS011;8724;51.272;6.554;2024-03-02T06:22:41;1.53;;;1.43;;
4700;SDS011;8724;51.272;6.554;2024-03-02T06:25:11;1.43;;;1.20;;
4700;SDS011;8724;51.272;6.554;2024-03-02T06:27:39;2.50;;;1.30;;
4700;SDS011;8724;51.272;6.554;2024-03-02T06:30:08;2.33;;;0.93;;
4700;SDS011;8724;51.272;6.554;2024-03-02T06:32:37;2.00;;;1.27;;
4700;SDS011;8724;51.272;6.554;2024-03-02T06:35:06;1.67;;;1.03;;
4700;SDS011;8724;51.272;6.554;2024-03-02T06:37:36;6.20;;;1.27;;
4700;SDS011;8724;51.272;6.554;2024-03-02T06:40:07;2.03;;;1.50;;
4700;SDS011;8724;51.272;6.554;2024-03-02T06:42:36;1.07;;;0.97;;
4700;SDS011;8724;51.272;6.554;2024-03-02T06:45:05;1.83;;;1.40;;
4700;SDS011;8724;51.272;6.554;2024-03-02T06:47:34;1.40;;;1.30;;
4700;SDS011;8724;51.272;6.554;2024-03-02T06:50:02;1.40;;;1.17;;
4700;SDS011;8724;51.272;6.554;2024-03-02T06:52:31;1.17;;;1.03;;
4700;SDS011;8724;51.272;6.554;2024-03-02T06:54:59;1.73;;;1.30;;
4700;SDS011;8724;51.272;6.554;2024-03-02T06:57:29;3.70;;;1.27;;
4700;SDS011;8724;51.272;6.554;2024-03-02T06:59:57;1.80;;;1.57;;
4700;SDS011;8724;51.272;6.554;2024-03-02T07:02:26;1.63;;;1.30;;
4700;SDS011;8724;51.272;6.554;2024-03-02T07:04:55;2.23;;;1.50;;
4700;SDS011;8724;51.272;6.554;2024-03-02T07:07:23;1.80;;;1.20;;
4700;SDS011;8724;51.272;6.554;2024-03-02T07:09:51;1.20;;;1.10;;
4700;SDS011;8724;51.272;6.554;2024-03-02T07:12:20;1.80;;;1.33;;
4700;SDS011;8724;51.272;6.554;2024-03-02T07:14:49;2.07;;;1.30;;
4700;SDS011;8724;51.272;6.554;2024-03-02T07:17:53;2.20;;;1.57;;
4700;SDS011;8724;51.272;6.554;2024-03-02T07:20:21;2.10;;;1.53;;
4700;SDS011;8724;51.272;6.554;2024-03-02T07:22:49;1.67;;;1.53;;
4700;SDS011;8724;51.272;6.554;2024-03-02T07:25:18;1.70;;;1.53;;
4700;SDS011;8724;51.272;6.554;2024-03-02T07:27:49;1.40;;;1.30;;
4700;SDS011;8724;51.272;6.554;2024-03-02T07:30:19;1.90;;;1.60;;
4700;SDS011;8724;51.272;6.554;2024-03-02T07:32:49;1.57;;;1.47;;
4700;SDS011;8724;51.272;6.554;2024-03-02T07:35:18;2.30;;;1.40;;
4700;SDS011;8724;51.272;6.554;2024-03-02T07:37:46;1.60;;;1.10;;
4700;SDS011;8724;51.272;6.554;2024-03-02T07:40:15;1.47;;;1.37;;
4700;SDS011;8724;51.272;6.554;2024-03-02T07:42:44;1.60;;;1.50;;
4700;SDS011;8724;51.272;6.554;2024-03-02T07:45:13;2.03;;;1.70;;
4700;SDS011;8724;51.272;6.554;2024-03-02T07:47:43;2.33;;;1.70;;
4700;SDS011;8724;51.272;6.554;2024-03-02T07:50:12;1.90;;;1.30;;
4700;SDS011;8724;51.272;6.554;2024-03-02T07:52:40;1.50;;;1.40;;
4700;SDS011;8724;51.272;6.554;2024-03-02T07:55:09;2.40;;;1.50;;
4700;SDS011;8724;51.272;6.554;2024-03-02T07:57:37;1.63;;;1.53;;
4700;SDS011;8724;51.272;6.554;2024-03-02T08:00:07;2.00;;;1.80;;
4700;SDS011;8724;51.272;6.554;2024-03-02T08:02:39;1.57;;;1.47;;
4700;SDS011;8724;51.272;6.554;2024-03-02T08:05:10;3.20;;;1.73;;
4700;SDS011;8724;51.272;6.554;2024-03-02T08:07:38;1.67;;;1.57;;
4700;SDS011;8724;51.272;6.554;2024-03-02T08:10:08;1.63;;;1.47;;
4700;SDS011;8724;51.272;6.554;2024-03-02T08:12:36;1.43;;;1.23;;
4700;SDS011;8724;51.272;6.554;2024-03-02T08:15:06;4.83;;;1.67;;
4700;SDS011;8724;51.272;6.554;2024-03-02T08:17:34;1.93;;;1.37;;
4700;SDS011;8724;51.272;6.554;2024-03-02T08:20:05;1.40;;;1.30;;
4700;SDS011;8724;51.272;6.554;2024-03-02T08:22:36;2.70;;;2.00;;
4700;SDS011;8724;51.272;6.554;2024-03-02T08:25:05;1.47;;;1.27;;
4700;SDS011;8724;51.272;6.554;2024-03-02T08:27:34;2.13;;;1.93;;
4700;SDS011;8724;51.272;6.554;2024-03-02T08:30:03;2.60;;;2.03;;
4700;SDS011;8724;51.272;6.554;2024-03-02T08:32:33;4.20;;;2.40;;
4700;SDS011;8724;51.272;6.554;2024-03-02T08:35:02;4.90;;;2.97;;
4700;SDS011;8724;51.272;6.554;2024-03-02T08:37:31;2.63;;;2.43;;
4700;SDS011;8724;51.272;6.554;2024-03-02T08:40:01;3.97;;;2.33;;
4700;SDS011;8724;51.272;6.554;2024-03-02T08:42:31;2.10;;;1.93;;
4700;SDS011;8724;51.272;6.554;2024-03-02T08:45:00;1.50;;;1.40;;
4700;SDS011;8724;51.272;6.554;2024-03-02T08:47:29;2.23;;;1.53;;
4700;SDS011;8724;51.272;6.554;2024-03-02T08:49:57;1.67;;;1.57;;
4700;SDS011;8724;51.272;6.554;2024-03-02T08:52:27;2.30;;;1.57;;
4700;SDS011;8724;51.272;6.554;2024-03-02T08:54:56;1.40;;;1.30;;
4700;SDS011;8724;51.272;6.554;2024-03-02T08:57:26;1.87;;;1.47;;
4700;SDS011;8724;51.272;6.554;2024-03-02T08:59:54;1.77;;;1.40;;
4700;SDS011;8724;51.272;6.554;2024-03-02T09:02:23;2.60;;;1.40;;
4700;SDS011;8724;51.272;6.554;2024-03-02T09:04:51;3.60;;;1.63;;
4700;SDS011;8724;51.272;6.554;2024-03-02T09:07:20;1.00;;;1.00;;
4700;SDS011;8724;51.272;6.554;2024-03-02T09:09:49;1.20;;;1.10;;
4700;SDS011;8724;51.272;6.554;2024-03-02T09:12:17;1.73;;;1.20;;
4700;SDS011;8724;51.272;6.554;2024-03-02T09:14:48;2.53;;;1.00;;
4700;SDS011;8724;51.272;6.554;2024-03-02T09:17:16;2.30;;;1.37;;
4700;SDS011;8724;51.272;6.554;2024-03-02T09:19:44;1.53;;;1.20;;
4700;SDS011;8724;51.272;6.554;2024-03-02T09:22:14;1.33;;;1.10;;
4700;SDS011;8724;51.272;6.554;2024-03-02T09:24:42;1.10;;;1.00;;
4700;SDS011;8724;51.272;6.554;2024-03-02T09:27:10;1.00;;;0.90;;
4700;SDS011;8724;51.272;6.554;2024-03-02T09:29:39;1.13;;;1.03;;
4700;SDS011;8724;51.272;6.554;2024-03-02T09:32:12;1.10;;;1.00;;
4700;SDS011;8724;51.272;6.554;2024-03-02T09:34:41;0.83;;;0.83;;
4700;SDS011;8724;51.272;6.554;2024-03-02T09:37:10;1.13;;;1.03;;
4700;SDS011;8724;51.272;6.554;2024-03-02T09:39:38;1.43;;;1.33;;
4700;SDS011;8724;51.272;6.554;2024-03-02T09:42:06;1.30;;;0.97;;
4700;SDS011;8724;51.272;6.554;2024-03-02T09:44:35;1.20;;;1.10;;
4700;SDS011;8724;51.272;6.554;2024-03-02T09:47:03;1.00;;;0.90;;
4700;SDS011;8724;51.272;6.554;2024-03-02T09:49:34;1.10;;;1.10;;
4700;SDS011;8724;51.272;6.554;2024-03-02T09:52:05;1.03;;;1.00;;
4700;SDS011;8724;51.272;6.554;2024-03-02T09:54:35;1.00;;;0.90;;
4700;SDS011;8724;51.272;6.554;2024-03-02T09:57:04;2.83;;;1.30;;
4700;SDS011;8724;51.272;6.554;2024-03-02T09:59:33;1.13;;;0.90;;
4700;SDS011;8724;51.272;6.554;2024-03-02T10:02:02;1.40;;;1.30;;
4700;SDS011;8724;51.272;6.554;2024-03-02T10:04:35;1.83;;;1.03;;
4700;SDS011;8724;51.272;6.554;2024-03-02T10:07:10;1.93;;;0.93;;
4700;SDS011;8724;51.272;6.554;2024-03-02T10:09:39;1.20;;;1.07;;
4700;SDS011;8724;51.272;6.554;2024-03-02T10:12:08;1.47;;;1.00;;
4700;SDS011;8724;51.272;6.554;2024-03-02T10:14:38;1.20;;;1.10;;
4700;SDS011;8724;51.272;6.554;2024-03-02T10:17:08;1.80;;;1.20;;
4700;SDS011;8724;51.272;6.554;2024-03-02T10:19:39;2.70;;;1.53;;
4700;SDS011;8724;51.272;6.554;2024-03-02T10:22:08;1.53;;;1.43;;
4700;SDS011;8724;51.272;6.554;2024-03-02T10:24:38;1.53;;;1.43;;
4700;SDS011;8724;51.272;6.554;2024-03-02T10:27:08;1.30;;;1.20;;
4700;SDS011;8724;51.272;6.554;2024-03-02T10:29:38;1.67;;;1.57;;
4700;SDS011;8724;51.272;6.554;2024-03-02T10:32:10;1.63;;;1.53;;
4700;SDS011;8724;51.272;6.554;2024-03-02T10:34:41;1.83;;;1.73;;
4700;SDS011;8724;51.272;6.554;2024-03-02T10:37:10;1.87;;;1.63;;
4700;SDS011;8724;51.272;6.554;2024-03-02T10:39:39;4.40;;;1.93;;
4700;SDS011;8724;51.272;6.554;2024-03-02T10:42:08;3.20;;;2.73;;
4700;SDS011;8724;51.272;6.554;2024-03-02T10:44:37;3.17;;;2.30;;
4700;SDS011;8724;51.272;6.554;2024-03-02T10:47:06;3.40;;;2.20;;
4700;SDS011;8724;51.272;6.554;2024-03-02T10:49:36;4.50;;;2.80;;
4700;SDS011;8724;51.272;6.554;2024-03-02T10:52:10;3.37;;;3.03;;
4700;SDS011;8724;51.272;6.554;2024-03-02T10:54:39;3.13;;;2.60;;
4700;SDS011;8724;51.272;6.554;2024-03-02T10:57:07;3.93;;;2.60;;
4700;SDS011;8724;51.272;6.554;2024-03-02T10:59:40;3.40;;;1.57;;
4700;SDS011;8724;51.272;6.554;2024-03-02T11:02:19;1.73;;;1.57;;
4700;SDS011;8724;51.272;6.554;2024-03-02T11:04:50;1.30;;;1.20;;
4700;SDS011;8724;51.272;6.554;2024-03-02T11:07:24;1.80;;;1.30;;
4700;SDS011;8724;51.272;6.554;2024-03-02T11:09:57;1.20;;;1.10;;
4700;SDS011;8724;51.272;6.554;2024-03-02T11:12:36;1.90;;;1.10;;
4700;SDS011;8724;51.272;6.554;2024-03-02T11:15:08;2.23;;;1.23;;
4700;SDS011;8724;51.272;6.554;2024-03-02T11:17:38;1.33;;;1.10;;
4700;SDS011;8724;51.272;6.554;2024-03-02T11:20:08;0.97;;;0.80;;
4700;SDS011;8724;51.272;6.554;2024-03-02T11:22:39;0.87;;;0.83;;
4700;SDS011;8724;51.272;6.554;2024-03-02T11:25:11;1.40;;;1.00;;
4700;SDS011;8724;51.272;6.554;2024-03-02T11:27:59;2.30;;;1.23;;
4700;SDS011;8724;51.272;6.554;2024-03-02T11:33:26;1.40;;;0.93;;
4700;SDS011;8724;51.272;6.554;2024-03-02T11:35:56;2.00;;;1.00;;
4700;SDS011;8724;51.272;6.554;2024-03-02T11:38:31;1.30;;;0.90;;
4700;SDS011;8724;51.272;6.554;2024-03-02T11:41:01;0.93;;;0.80;;
4700;SDS011;8724;51.272;6.554;2024-03-02T11:43:30;1.53;;;1.00;;
4700;SDS011;8724;51.272;6.554;2024-03-02T11:46:00;1.53;;;0.80;;
4700;SDS011;8724;51.272;6.554;2024-03-02T11:48:34;1.03;;;0.93;;
4700;SDS011;8724;51.272;6.554;2024-03-02T11:51:04;2.30;;;1.00;;
4700;SDS011;8724;51.272;6.554;2024-03-02T11:53:34;1.70;;;1.00;;
4700;SDS011;8724;51.272;6.554;2024-03-02T11:56:06;1.17;;;0.90;;
4700;SDS011;8724;51.272;6.554;2024-03-02T11:58:38;0.80;;;0.67;;
4700;SDS011;8724;51.272;6.554;2024-03-02T12:01:09;0.70;;;0.70;;
4700;SDS011;8724;51.272;6.554;2024-03-02T12:03:38;2.53;;;0.90;;
4700;SDS011;8724;51.272;6.554;2024-03-02T12:06:07;0.70;;;0.60;;
4700;SDS011;8724;51.272;6.554;2024-03-02T12:08:37;1.37;;;0.70;;
4700;SDS011;8724;51.272;6.554;2024-03-02T12:11:07;0.60;;;0.60;;
4700;SDS011;8724;51.272;6.554;2024-03-02T12:13:35;1.00;;;0.80;;
4700;SDS011;8724;51.272;6.554;2024-03-02T12:16:04;1.23;;;0.90;;
4700;SDS011;8724;51.272;6.554;2024-03-02T12:18:33;3.93;;;0.80;;
4700;SDS011;8724;51.272;6.554;2024-03-02T12:21:04;2.70;;;0.87;;
4700;SDS011;8724;51.272;6.554;2024-03-02T12:23:36;2.30;;;1.13;;
4700;SDS011;8724;51.272;6.554;2024-03-02T12:26:05;2.47;;;1.30;;
4700;SDS011;8724;51.272;6.554;2024-03-02T12:28:34;1.10;;;0.70;;
4700;SDS011;8724;51.272;6.554;2024-03-02T12:31:03;1.00;;;0.80;;
4700;SDS011;8724;51.272;6.554;2024-03-02T12:33:31;0.97;;;0.87;;
4700;SDS011;8724;51.272;6.554;2024-03-02T12:36:00;1.43;;;1.00;;
4700;SDS011;8724;51.272;6.554;2024-03-02T12:38:29;2.17;;;1.03;;
4700;SDS011;8724;51.272;6.554;2024-03-02T12:40:59;0.80;;;0.80;;
4700;SDS011;8724;51.272;6.554;2024-03-02T12:43:29;1.17;;;0.80;;
4700;SDS011;8724;51.272;6.554;2024-03-02T12:45:58;1.10;;;0.90;;
4700;SDS011;8724;51.272;6.554;2024-03-02T12:48:27;2.27;;;0.70;;
4700;SDS011;8724;51.272;6.554;2024-03-02T12:50:56;1.50;;;1.00;;
4700;SDS011;8724;51.272;6.554;2024-03-02T12:53:25;0.63;;;0.63;;
4700;SDS011;8724;51.272;6.554;2024-03-02T12:55:53;0.73;;;0.60;;
4700;SDS011;8724;51.272;6.554;2024-03-02T12:58:23;0.73;;;0.70;;
4700;SDS011;8724;51.272;6.554;2024-03-02T13:01:05;3.73;;;1.30;;
4700;SDS011;8724;51.272;6.554;2024-03-02T13:03:35;1.90;;;1.00;;
4700;SDS011;8724;51.272;6.554;2024-03-02T13:06:04;0.80;;;0.80;;
4700;SDS011;8724;51.272;6.554;2024-03-02T13:08:33;0.70;;;0.60;;
4700;SDS011;8724;51.272;6.554;2024-03-02T13:11:03;2.13;;;0.90;;
4700;SDS011;8724;51.272;6.554;2024-03-02T13:13:35;1.10;;;0.80;;
4700;SDS011;8724;51.272;6.554;2024-03-02T13:16:04;2.60;;;1.47;;
4700;SDS011;8724;51.272;6.554;2024-03-02T13:18:38;1.47;;;1.20;;
4700;SDS011;8724;51.272;6.554;2024-03-02T13:21:06;0.80;;;0.80;;
4700;SDS011;8724;51.272;6.554;2024-03-02T13:23:35;1.70;;;0.90;;
4700;SDS011;8724;51.272;6.554;2024-03-02T13:26:03;2.73;;;1.07;;
4700;SDS011;8724;51.272;6.554;2024-03-02T13:28:35;1.00;;;0.90;;
4700;SDS011;8724;51.272;6.554;2024-03-02T13:31:04;1.33;;;0.90;;
4700;SDS011;8724;51.272;6.554;2024-03-02T13:33:33;1.47;;;1.17;;
4700;SDS011;8724;51.272;6.554;2024-03-02T13:36:02;1.00;;;0.90;;
4700;SDS011;8724;51.272;6.554;2024-03-02T13:38:30;1.57;;;1.33;;
4700;SDS011;8724;51.272;6.554;2024-03-02T13:40:58;1.43;;;1.13;;
4700;SDS011;8724;51.272;6.554;2024-03-02T13:43:28;1.50;;;1.07;;
4700;SDS011;8724;51.272;6.554;2024-03-02T13:45:59;1.10;;;0.83;;
4700;SDS011;8724;51.272;6.554;2024-03-02T13:48:28;0.90;;;0.80;;
4700;SDS011;8724;51.272;6.554;2024-03-02T13:50:57;1.10;;;1.00;;
4700;SDS011;8724;51.272;6.554;2024-03-02T13:53:25;1.20;;;1.10;;
4700;SDS011;8724;51.272;6.554;2024-03-02T13:55:54;1.10;;;1.00;;
4700;SDS011;8724;51.272;6.554;2024-03-02T13:58:23;4.80;;;1.30;;
4700;SDS011;8724;51.272;6.554;2024-03-02T14:00:51;1.20;;;0.90;;
4700;SDS011;8724;51.272;6.554;2024-03-02T14:03:21;1.03;;;0.90;;
4700;SDS011;8724;51.272;6.554;2024-03-02T14:05:51;1.20;;;1.10;;
4700;SDS011;8724;51.272;6.554;2024-03-02T14:08:20;0.97;;;0.97;;
4700;SDS011;8724;51.272;6.554;2024-03-02T14:10:48;1.90;;;1.53;;
4700;SDS011;8724;51.272;6.554;2024-03-02T14:13:16;0.90;;;0.90;;
4700;SDS011;8724;51.272;6.554;2024-03-02T14:15:45;1.80;;;0.80;;
4700;SDS011;8724;51.272;6.554;2024-03-02T14:18:13;0.97;;;0.90;;
4700;SDS011;8724;51.272;6.554;2024-03-02T14:20:43;2.97;;;0.90;;
4700;SDS011;8724;51.272;6.554;2024-03-02T14:23:12;0.80;;;0.80;;
4700;SDS011;8724;51.272;6.554;2024-03-02T14:25:40;1.00;;;1.00;;
4700;SDS011;8724;51.272;6.554;2024-03-02T14:28:08;1.67;;;1.00;;
4700;SDS011;8724;51.272;6.554;2024-03-02T14:30:57;1.43;;;0.93;;
4700;SDS011;8724;51.272;6.554;2024-03-02T14:33:27;1.40;;;1.20;;
4700;SDS011;8724;51.272;6.554;2024-03-02T14:35:57;1.10;;;1.00;;
4700;SDS011;8724;51.272;6.554;2024-03-02T14:38:25;1.50;;;0.93;;
4700;SDS011;8724;51.272;6.554;2024-03-02T14:40:55;0.80;;;0.80;;
4700;SDS011;8724;51.272;6.554;2024-03-02T14:43:24;0.73;;;0.73;;
4700;SDS011;8724;51.272;6.554;2024-03-02T14:45:52;1.10;;;0.80;;
4700;SDS011;8724;51.272;6.554;2024-03-02T14:48:22;1.10;;;1.10;;
4700;SDS011;8724;51.272;6.554;2024-03-02T14:50:50;1.50;;;1.07;;
4700;SDS011;8724;51.272;6.554;2024-03-02T14:53:20;2.40;;;1.43;;
4700;SDS011;8724;51.272;6.554;2024-03-02T14:55:48;0.90;;;0.80;;
4700;SDS011;8724;51.272;6.554;2024-03-02T14:58:17;2.00;;;0.90;;
4700;SDS011;8724;51.272;6.554;2024-03-02T15:00:45;0.80;;;0.80;;
4700;SDS011;8724;51.272;6.554;2024-03-02T15:03:14;0.70;;;0.70;;
4700;SDS011;8724;51.272;6.554;2024-03-02T15:05:43;0.93;;;0.70;;
4700;SDS011;8724;51.272;6.554;2024-03-02T15:08:12;2.40;;;0.93;;
4700;SDS011;8724;51.272;6.554;2024-03-02T15:10:42;1.10;;;1.00;;
4700;SDS011;8724;51.272;6.554;2024-03-02T15:13:11;1.03;;;0.83;;
4700;SDS011;8724;51.272;6.554;2024-03-02T15:15:40;0.90;;;0.90;;
4700;SDS011;8724;51.272;6.554;2024-03-02T15:18:09;1.20;;;1.00;;
4700;SDS011;8724;51.272;6.554;2024-03-02T15:20:38;1.30;;;0.90;;
4700;SDS011;8724;51.272;6.554;2024-03-02T15:23:07;0.80;;;0.80;;
4700;SDS011;8724;51.272;6.554;2024-03-02T15:25:35;1.40;;;0.83;;
4700;SDS011;8724;51.272;6.554;2024-03-02T15:28:05;0.60;;;0.60;;
4700;SDS011;8724;51.272;6.554;2024-03-02T15:30:34;0.73;;;0.70;;
4700;SDS011;8724;51.272;6.554;2024-03-02T15:33:02;0.80;;;0.60;;